sensor_id;sensor_type;location;lat;lon;timestamp;temperature;humidity
13848;DHT22;6994;49.752;6.094;2023-03-14T00:01:26;10.80;99.90
13848;DHT22;6994;49.752;6.094;2023-03-14T00:03:54;10.90;99.90
13848;DHT22;6994;49.752;6.094;2023-03-14T00:06:21;11.00;99.90
13848;DHT22;6994;49.752;6.094;2023-03-14T00:08:48;11.10;99.90
13848;DHT22;6994;49.752;6.094;2023-03-14T00:11:17;11.00;99.90
13848;DHT22;6994;49.752;6.094;2023-03-14T00:13:46;11.00;99.90
13848;DHT22;6994;49.752;6.094;2023-03-14T00:16:12;11.00;99.90
13848;DHT22;6994;49.752;6.094;2023-03-14T00:18:39;11.00;99.90
13848;DHT22;6994;49.752;6.094;2023-03-14T00:21:08;11.00;99.90
13848;DHT22;6994;49.752;6.094;2023-03-14T00:23:36;11.00;99.90
13848;DHT22;6994;49.752;6.094;2023-03-14T00:26:03;11.00;99.90
13848;DHT22;6994;49.752;6.094;2023-03-14T00:28:30;11.00;99.90
13848;DHT22;6994;49.752;6.094;2023-03-14T00:30:57;11.00;99.90
13848;DHT22;6994;49.752;6.094;2023-03-14T00:33:24;10.90;99.90
13848;DHT22;6994;49.752;6.094;2023-03-14T00:36:02;10.90;99.90
13848;DHT22;6994;49.752;6.094;2023-03-14T00:38:24;10.80;99.90
13848;DHT22;6994;49.752;6.094;2023-03-14T00:40:52;10.70;99.90
13848;DHT22;6994;49.752;6.094;2023-03-14T00:43:19;10.60;99.90
13848;DHT22;6994;49.752;6.094;2023-03-14T00:45:51;10.50;99.90
13848;DHT22;6994;49.752;6.094;2023-03-14T00:48:15;10.50;99.90
13848;DHT22;6994;49.752;6.094;2023-03-14T00:50:42;10.40;99.90
13848;DHT22;6994;49.752;6.094;2023-03-14T00:53:09;10.50;99.90
13848;DHT22;6994;49.752;6.094;2023-03-14T00:55:37;10.50;99.90
13848;DHT22;6994;49.752;6.094;2023-03-14T00:58:04;10.70;99.90
13848;DHT22;6994;49.752;6.094;2023-03-14T01:00:31;10.80;99.90
13848;DHT22;6994;49.752;6.094;2023-03-14T01:02:58;10.80;99.90
13848;DHT22;6994;49.752;6.094;2023-03-14T01:05:25;10.80;99.90
13848;DHT22;6994;49.752;6.094;2023-03-14T01:07:52;10.80;99.90
13848;DHT22;6994;49.752;6.094;2023-03-14T01:10:20;10.90;99.90
13848;DHT22;6994;49.752;6.094;2023-03-14T01:12:48;10.90;99.90
13848;DHT22;6994;49.752;6.094;2023-03-14T01:15:16;10.90;99.90
13848;DHT22;6994;49.752;6.094;2023-03-14T01:17:43;10.90;99.90
13848;DHT22;6994;49.752;6.094;2023-03-14T01:20:10;10.90;99.90
13848;DHT22;6994;49.752;6.094;2023-03-14T01:22:38;11.00;99.90
13848;DHT22;6994;49.752;6.094;2023-03-14T01:25:05;11.00;99.90
13848;DHT22;6994;49.752;6.094;2023-03-14T01:27:32;11.00;99.90
13848;DHT22;6994;49.752;6.094;2023-03-14T01:29:59;11.10;99.90
13848;DHT22;6994;49.752;6.094;2023-03-14T01:32:27;11.20;99.90
13848;DHT22;6994;49.752;6.094;2023-03-14T01:34:54;11.20;99.90
13848;DHT22;6994;49.752;6.094;2023-03-14T01:37:21;11.30;99.90
13848;DHT22;6994;49.752;6.094;2023-03-14T01:39:49;11.30;99.90
13848;DHT22;6994;49.752;6.094;2023-03-14T01:42:17;11.30;99.90
13848;DHT22;6994;49.752;6.094;2023-03-14T01:44:56;11.20;99.90
13848;DHT22;6994;49.752;6.094;2023-03-14T01:47:23;11.10;99.90
13848;DHT22;6994;49.752;6.094;2023-03-14T01:49:56;10.60;99.90
13848;DHT22;6994;49.752;6.094;2023-03-14T01:52:35;10.60;99.90
13848;DHT22;6994;49.752;6.094;2023-03-14T01:55:02;10.50;99.90
13848;DHT22;6994;49.752;6.094;2023-03-14T01:57:37;10.30;99.90
13848;DHT22;6994;49.752;6.094;2023-03-14T02:00:13;10.30;99.90
13848;DHT22;6994;49.752;6.094;2023-03-14T02:02:47;10.30;99.90
13848;DHT22;6994;49.752;6.094;2023-03-14T02:05:10;10.20;99.90
13848;DHT22;6994;49.752;6.094;2023-03-14T02:07:40;10.00;99.90
13848;DHT22;6994;49.752;6.094;2023-03-14T02:10:05;10.00;99.90
13848;DHT22;6994;49.752;6.094;2023-03-14T02:12:32;9.90;99.90
13848;DHT22;6994;49.752;6.094;2023-03-14T02:14:59;9.80;99.90
13848;DHT22;6994;49.752;6.094;2023-03-14T02:17:26;9.90;99.90
13848;DHT22;6994;49.752;6.094;2023-03-14T02:22:26;10.00;99.90
13848;DHT22;6994;49.752;6.094;2023-03-14T02:25:06;10.00;99.90
13848;DHT22;6994;49.752;6.094;2023-03-14T02:27:30;9.90;99.90
13848;DHT22;6994;49.752;6.094;2023-03-14T02:30:03;9.90;99.90
13848;DHT22;6994;49.752;6.094;2023-03-14T02:32:25;9.90;99.90
13848;DHT22;6994;49.752;6.094;2023-03-14T02:34:59;9.90;99.90
13848;DHT22;6994;49.752;6.094;2023-03-14T02:37:27;9.80;99.90
13848;DHT22;6994;49.752;6.094;2023-03-14T02:39:53;9.70;99.90
13848;DHT22;6994;49.752;6.094;2023-03-14T02:42:20;9.70;99.90
13848;DHT22;6994;49.752;6.094;2023-03-14T02:44:55;9.60;99.90
13848;DHT22;6994;49.752;6.094;2023-03-14T02:47:25;9.50;99.90
13848;DHT22;6994;49.752;6.094;2023-03-14T02:49:48;9.50;99.90
13848;DHT22;6994;49.752;6.094;2023-03-14T02:52:15;9.60;99.90
13848;DHT22;6994;49.752;6.094;2023-03-14T02:54:42;9.60;99.90
13848;DHT22;6994;49.752;6.094;2023-03-14T02:57:09;9.50;99.90
13848;DHT22;6994;49.752;6.094;2023-03-14T02:59:36;9.50;99.90
13848;DHT22;6994;49.752;6.094;2023-03-14T03:02:04;9.60;99.90
13848;DHT22;6994;49.752;6.094;2023-03-14T03:04:31;9.60;99.90
13848;DHT22;6994;49.752;6.094;2023-03-14T03:06:58;9.80;99.90
13848;DHT22;6994;49.752;6.094;2023-03-14T03:09:25;9.80;99.90
13848;DHT22;6994;49.752;6.094;2023-03-14T03:11:52;9.70;99.90
13848;DHT22;6994;49.752;6.094;2023-03-14T03:14:20;9.70;99.90
13848;DHT22;6994;49.752;6.094;2023-03-14T03:16:47;9.80;99.90
13848;DHT22;6994;49.752;6.094;2023-03-14T03:19:14;9.80;99.90
13848;DHT22;6994;49.752;6.094;2023-03-14T03:21:41;9.70;99.90
13848;DHT22;6994;49.752;6.094;2023-03-14T03:24:08;9.60;99.90
13848;DHT22;6994;49.752;6.094;2023-03-14T03:26:36;9.60;99.90
13848;DHT22;6994;49.752;6.094;2023-03-14T03:29:03;9.50;99.90
13848;DHT22;6994;49.752;6.094;2023-03-14T03:31:30;9.40;99.90
13848;DHT22;6994;49.752;6.094;2023-03-14T03:33:57;9.40;99.90
13848;DHT22;6994;49.752;6.094;2023-03-14T03:36:25;9.30;99.90
13848;DHT22;6994;49.752;6.094;2023-03-14T03:38:52;9.30;99.90
13848;DHT22;6994;49.752;6.094;2023-03-14T03:41:19;9.30;99.90
13848;DHT22;6994;49.752;6.094;2023-03-14T03:43:47;9.20;99.90
13848;DHT22;6994;49.752;6.094;2023-03-14T03:46:14;9.20;99.90
13848;DHT22;6994;49.752;6.094;2023-03-14T03:48:41;9.20;99.90
13848;DHT22;6994;49.752;6.094;2023-03-14T03:51:12;9.20;99.90
13848;DHT22;6994;49.752;6.094;2023-03-14T03:53:35;9.20;99.90
13848;DHT22;6994;49.752;6.094;2023-03-14T03:56:03;9.20;99.90
13848;DHT22;6994;49.752;6.094;2023-03-14T03:58:30;9.10;99.90
13848;DHT22;6994;49.752;6.094;2023-03-14T04:00:57;9.10;99.90
13848;DHT22;6994;49.752;6.094;2023-03-14T04:03:24;9.10;99.90
13848;DHT22;6994;49.752;6.094;2023-03-14T04:05:58;9.10;99.90
13848;DHT22;6994;49.752;6.094;2023-03-14T04:08:25;9.10;99.90
13848;DHT22;6994;49.752;6.094;2023-03-14T04:10:58;9.00;99.90
13848;DHT22;6994;49.752;6.094;2023-03-14T04:13:25;9.00;99.90
13848;DHT22;6994;49.752;6.094;2023-03-14T04:15:52;9.00;99.90
13848;DHT22;6994;49.752;6.094;2023-03-14T04:18:19;9.00;99.90
13848;DHT22;6994;49.752;6.094;2023-03-14T04:20:56;9.00;99.90
13848;DHT22;6994;49.752;6.094;2023-03-14T04:23:23;8.90;99.90
13848;DHT22;6994;49.752;6.094;2023-03-14T04:25:53;8.90;99.90
13848;DHT22;6994;49.752;6.094;2023-03-14T04:28:20;9.10;99.90
13848;DHT22;6994;49.752;6.094;2023-03-14T04:30:47;9.10;99.90
13848;DHT22;6994;49.752;6.094;2023-03-14T04:33:15;9.10;99.90
13848;DHT22;6994;49.752;6.094;2023-03-14T04:35:42;9.10;99.90
13848;DHT22;6994;49.752;6.094;2023-03-14T04:38:09;9.00;99.90
13848;DHT22;6994;49.752;6.094;2023-03-14T04:40:39;9.00;99.90
13848;DHT22;6994;49.752;6.094;2023-03-14T04:43:07;9.00;99.90
13848;DHT22;6994;49.752;6.094;2023-03-14T04:45:33;8.90;99.90
13848;DHT22;6994;49.752;6.094;2023-03-14T04:48:00;8.90;99.90
13848;DHT22;6994;49.752;6.094;2023-03-14T04:50:28;8.90;99.90
13848;DHT22;6994;49.752;6.094;2023-03-14T04:52:55;8.90;99.90
13848;DHT22;6994;49.752;6.094;2023-03-14T04:55:22;8.90;99.90
13848;DHT22;6994;49.752;6.094;2023-03-14T04:57:49;8.90;99.90
13848;DHT22;6994;49.752;6.094;2023-03-14T05:00:16;9.00;99.90
13848;DHT22;6994;49.752;6.094;2023-03-14T05:02:47;9.10;99.90
13848;DHT22;6994;49.752;6.094;2023-03-14T05:05:15;9.20;99.90
13848;DHT22;6994;49.752;6.094;2023-03-14T05:07:42;9.20;99.90
13848;DHT22;6994;49.752;6.094;2023-03-14T05:10:10;9.40;99.90
13848;DHT22;6994;49.752;6.094;2023-03-14T05:12:37;9.40;99.90
13848;DHT22;6994;49.752;6.094;2023-03-14T05:15:04;9.40;99.90
13848;DHT22;6994;49.752;6.094;2023-03-14T05:17:35;9.30;99.90
13848;DHT22;6994;49.752;6.094;2023-03-14T05:20:02;9.30;99.90
13848;DHT22;6994;49.752;6.094;2023-03-14T05:22:29;9.20;99.90
13848;DHT22;6994;49.752;6.094;2023-03-14T05:24:56;9.20;99.90
13848;DHT22;6994;49.752;6.094;2023-03-14T05:27:23;9.20;99.90
13848;DHT22;6994;49.752;6.094;2023-03-14T05:29:51;9.20;99.90
13848;DHT22;6994;49.752;6.094;2023-03-14T05:32:18;9.10;99.90
13848;DHT22;6994;49.752;6.094;2023-03-14T05:34:45;9.10;99.90
13848;DHT22;6994;49.752;6.094;2023-03-14T05:37:12;9.10;99.90
13848;DHT22;6994;49.752;6.094;2023-03-14T05:39:39;9.10;99.90
13848;DHT22;6994;49.752;6.094;2023-03-14T05:42:07;9.10;99.90
13848;DHT22;6994;49.752;6.094;2023-03-14T05:44:34;9.30;99.90
13848;DHT22;6994;49.752;6.094;2023-03-14T05:47:01;9.30;99.90
13848;DHT22;6994;49.752;6.094;2023-03-14T05:49:28;9.50;99.90
13848;DHT22;6994;49.752;6.094;2023-03-14T05:51:55;9.50;99.90
13848;DHT22;6994;49.752;6.094;2023-03-14T05:54:23;9.60;99.90
13848;DHT22;6994;49.752;6.094;2023-03-14T05:56:50;9.60;99.90
13848;DHT22;6994;49.752;6.094;2023-03-14T05:59:17;9.70;99.90
13848;DHT22;6994;49.752;6.094;2023-03-14T06:01:44;9.70;99.90
13848;DHT22;6994;49.752;6.094;2023-03-14T06:04:11;9.80;99.90
13848;DHT22;6994;49.752;6.094;2023-03-14T06:06:39;9.70;99.90
13848;DHT22;6994;49.752;6.094;2023-03-14T06:09:06;9.80;99.90
13848;DHT22;6994;49.752;6.094;2023-03-14T06:11:33;9.90;99.90
13848;DHT22;6994;49.752;6.094;2023-03-14T06:14:00;9.90;99.90
13848;DHT22;6994;49.752;6.094;2023-03-14T06:16:27;9.80;99.90
13848;DHT22;6994;49.752;6.094;2023-03-14T06:18:55;9.70;99.90
13848;DHT22;6994;49.752;6.094;2023-03-14T06:21:22;9.60;99.90
13848;DHT22;6994;49.752;6.094;2023-03-14T06:23:49;9.70;99.90
13848;DHT22;6994;49.752;6.094;2023-03-14T06:26:16;9.70;99.90
13848;DHT22;6994;49.752;6.094;2023-03-14T06:28:43;9.80;99.90
13848;DHT22;6994;49.752;6.094;2023-03-14T06:31:11;9.80;99.90
13848;DHT22;6994;49.752;6.094;2023-03-14T06:33:38;9.80;99.90
13848;DHT22;6994;49.752;6.094;2023-03-14T06:36:05;9.70;99.90
13848;DHT22;6994;49.752;6.094;2023-03-14T06:38:32;9.80;99.90
13848;DHT22;6994;49.752;6.094;2023-03-14T06:41:03;9.80;99.90
13848;DHT22;6994;49.752;6.094;2023-03-14T06:43:30;9.90;99.90
13848;DHT22;6994;49.752;6.094;2023-03-14T06:45:57;9.90;99.90
13848;DHT22;6994;49.752;6.094;2023-03-14T06:48:24;9.80;99.90
13848;DHT22;6994;49.752;6.094;2023-03-14T06:50:51;9.70;99.90
13848;DHT22;6994;49.752;6.094;2023-03-14T06:53:19;9.70;99.90
13848;DHT22;6994;49.752;6.094;2023-03-14T06:55:46;9.60;99.90
13848;DHT22;6994;49.752;6.094;2023-03-14T06:58:13;9.60;99.90
13848;DHT22;6994;49.752;6.094;2023-03-14T07:00:40;9.60;99.90
13848;DHT22;6994;49.752;6.094;2023-03-14T07:03:07;9.60;99.90
13848;DHT22;6994;49.752;6.094;2023-03-14T07:05:35;9.60;99.90
13848;DHT22;6994;49.752;6.094;2023-03-14T07:08:02;9.70;99.90
13848;DHT22;6994;49.752;6.094;2023-03-14T07:10:29;9.70;99.90
13848;DHT22;6994;49.752;6.094;2023-03-14T07:12:56;9.70;99.90
13848;DHT22;6994;49.752;6.094;2023-03-14T07:15:23;9.80;99.90
13848;DHT22;6994;49.752;6.094;2023-03-14T07:17:51;9.80;99.90
13848;DHT22;6994;49.752;6.094;2023-03-14T07:20:18;9.90;99.90
13848;DHT22;6994;49.752;6.094;2023-03-14T07:22:47;10.00;99.90
13848;DHT22;6994;49.752;6.094;2023-03-14T07:25:12;10.00;99.90
13848;DHT22;6994;49.752;6.094;2023-03-14T07:27:39;10.00;99.90
13848;DHT22;6994;49.752;6.094;2023-03-14T07:30:07;9.90;99.90
13848;DHT22;6994;49.752;6.094;2023-03-14T07:32:34;9.90;99.90
13848;DHT22;6994;49.752;6.094;2023-03-14T07:35:01;9.90;99.90
13848;DHT22;6994;49.752;6.094;2023-03-14T07:37:28;9.90;99.90
13848;DHT22;6994;49.752;6.094;2023-03-14T07:39:55;9.80;99.90
13848;DHT22;6994;49.752;6.094;2023-03-14T07:42:23;9.80;99.90
13848;DHT22;6994;49.752;6.094;2023-03-14T07:44:50;9.90;99.90
13848;DHT22;6994;49.752;6.094;2023-03-14T07:47:17;9.90;99.90
13848;DHT22;6994;49.752;6.094;2023-03-14T07:49:44;9.90;99.90
13848;DHT22;6994;49.752;6.094;2023-03-14T07:52:11;9.90;99.90
13848;DHT22;6994;49.752;6.094;2023-03-14T07:54:39;9.90;99.90
13848;DHT22;6994;49.752;6.094;2023-03-14T07:57:06;9.90;99.90
13848;DHT22;6994;49.752;6.094;2023-03-14T07:59:33;9.90;99.90
13848;DHT22;6994;49.752;6.094;2023-03-14T08:02:00;9.90;99.90
13848;DHT22;6994;49.752;6.094;2023-03-14T08:04:27;9.80;99.90
13848;DHT22;6994;49.752;6.094;2023-03-14T08:06:55;9.80;99.90
13848;DHT22;6994;49.752;6.094;2023-03-14T08:09:22;9.80;99.90
13848;DHT22;6994;49.752;6.094;2023-03-14T08:11:49;9.90;99.90
13848;DHT22;6994;49.752;6.094;2023-03-14T08:14:16;9.90;99.90
13848;DHT22;6994;49.752;6.094;2023-03-14T08:16:43;9.90;99.90
13848;DHT22;6994;49.752;6.094;2023-03-14T08:19:11;9.90;99.90
13848;DHT22;6994;49.752;6.094;2023-03-14T08:21:38;9.90;99.90
13848;DHT22;6994;49.752;6.094;2023-03-14T08:24:05;10.00;99.90
13848;DHT22;6994;49.752;6.094;2023-03-14T08:26:32;9.90;99.90
13848;DHT22;6994;49.752;6.094;2023-03-14T08:28:59;9.90;99.90
13848;DHT22;6994;49.752;6.094;2023-03-14T08:31:27;10.00;99.90
13848;DHT22;6994;49.752;6.094;2023-03-14T08:33:55;10.00;99.90
13848;DHT22;6994;49.752;6.094;2023-03-14T08:36:23;10.00;99.90
13848;DHT22;6994;49.752;6.094;2023-03-14T08:38:50;10.00;99.90
13848;DHT22;6994;49.752;6.094;2023-03-14T08:41:18;10.00;99.90
13848;DHT22;6994;49.752;6.094;2023-03-14T08:43:45;10.10;99.90
13848;DHT22;6994;49.752;6.094;2023-03-14T08:46:12;10.10;99.90
13848;DHT22;6994;49.752;6.094;2023-03-14T08:48:39;10.20;99.90
13848;DHT22;6994;49.752;6.094;2023-03-14T08:51:11;10.20;99.90
13848;DHT22;6994;49.752;6.094;2023-03-14T08:53:34;10.50;99.90
13848;DHT22;6994;49.752;6.094;2023-03-14T08:56:01;10.70;99.90
13848;DHT22;6994;49.752;6.094;2023-03-14T08:58:28;10.80;99.90
13848;DHT22;6994;49.752;6.094;2023-03-14T09:00:55;10.90;99.90
13848;DHT22;6994;49.752;6.094;2023-03-14T09:03:23;11.00;99.90
13848;DHT22;6994;49.752;6.094;2023-03-14T09:05:50;11.00;99.90
13848;DHT22;6994;49.752;6.094;2023-03-14T09:08:17;10.90;99.90
13848;DHT22;6994;49.752;6.094;2023-03-14T09:10:44;10.80;99.90
13848;DHT22;6994;49.752;6.094;2023-03-14T09:13:11;10.90;99.90
13848;DHT22;6994;49.752;6.094;2023-03-14T09:15:39;10.80;99.90
13848;DHT22;6994;49.752;6.094;2023-03-14T09:18:06;10.80;99.90
13848;DHT22;6994;49.752;6.094;2023-03-14T09:20:33;10.70;99.90
13848;DHT22;6994;49.752;6.094;2023-03-14T09:23:00;10.40;99.90
13848;DHT22;6994;49.752;6.094;2023-03-14T09:25:27;10.20;99.90
13848;DHT22;6994;49.752;6.094;2023-03-14T09:27:55;9.90;99.90
13848;DHT22;6994;49.752;6.094;2023-03-14T09:30:22;9.90;99.90
13848;DHT22;6994;49.752;6.094;2023-03-14T09:32:49;9.80;99.90
13848;DHT22;6994;49.752;6.094;2023-03-14T09:35:16;9.60;99.90
13848;DHT22;6994;49.752;6.094;2023-03-14T09:37:43;9.50;99.90
13848;DHT22;6994;49.752;6.094;2023-03-14T09:40:15;9.50;99.90
13848;DHT22;6994;49.752;6.094;2023-03-14T09:42:38;9.50;99.90
13848;DHT22;6994;49.752;6.094;2023-03-14T09:45:07;9.80;99.90
13848;DHT22;6994;49.752;6.094;2023-03-14T09:47:33;9.90;99.90
13848;DHT22;6994;49.752;6.094;2023-03-14T09:50:00;9.90;99.90
13848;DHT22;6994;49.752;6.094;2023-03-14T09:52:31;9.90;99.90
13848;DHT22;6994;49.752;6.094;2023-03-14T09:54:55;10.20;99.90
13848;DHT22;6994;49.752;6.094;2023-03-14T09:57:23;10.20;99.90
13848;DHT22;6994;49.752;6.094;2023-03-14T09:59:48;10.10;99.90
13848;DHT22;6994;49.752;6.094;2023-03-14T10:02:19;10.00;99.90
13848;DHT22;6994;49.752;6.094;2023-03-14T10:04:49;9.80;99.90
13848;DHT22;6994;49.752;6.094;2023-03-14T10:07:16;9.60;99.90
13848;DHT22;6994;49.752;6.094;2023-03-14T10:09:45;9.40;99.90
13848;DHT22;6994;49.752;6.094;2023-03-14T10:12:12;9.20;99.90
13848;DHT22;6994;49.752;6.094;2023-03-14T10:14:47;9.00;99.90
13848;DHT22;6994;49.752;6.094;2023-03-14T10:17:13;8.90;99.90
13848;DHT22;6994;49.752;6.094;2023-03-14T10:20:43;8.70;99.90
13848;DHT22;6994;49.752;6.094;2023-03-14T10:22:16;8.60;99.90
13848;DHT22;6994;49.752;6.094;2023-03-14T10:24:46;8.50;99.90
13848;DHT22;6994;49.752;6.094;2023-03-14T10:27:20;8.40;99.90
13848;DHT22;6994;49.752;6.094;2023-03-14T10:29:54;8.30;99.90
13848;DHT22;6994;49.752;6.094;2023-03-14T10:32:20;8.30;99.90
13848;DHT22;6994;49.752;6.094;2023-03-14T10:35:03;8.30;99.90
13848;DHT22;6994;49.752;6.094;2023-03-14T10:37:24;8.40;99.90
13848;DHT22;6994;49.752;6.094;2023-03-14T10:39:54;8.90;99.90
13848;DHT22;6994;49.752;6.094;2023-03-14T10:42:27;8.90;99.90
13848;DHT22;6994;49.752;6.094;2023-03-14T10:44:58;9.10;99.90
13848;DHT22;6994;49.752;6.094;2023-03-14T10:47:24;9.50;99.90
13848;DHT22;6994;49.752;6.094;2023-03-14T10:49:51;9.70;99.90
13848;DHT22;6994;49.752;6.094;2023-03-14T10:52:25;10.10;99.90
13848;DHT22;6994;49.752;6.094;2023-03-14T10:54:58;10.30;99.90
13848;DHT22;6994;49.752;6.094;2023-03-14T10:57:24;10.70;99.90
13848;DHT22;6994;49.752;6.094;2023-03-14T10:59:52;10.80;99.90
13848;DHT22;6994;49.752;6.094;2023-03-14T11:07:43;10.40;99.90
13848;DHT22;6994;49.752;6.094;2023-03-14T11:10:32;10.10;99.90
13848;DHT22;6994;49.752;6.094;2023-03-14T11:24:12;9.40;99.90
13848;DHT22;6994;49.752;6.094;2023-03-14T11:27:00;9.60;99.90
13848;DHT22;6994;49.752;6.094;2023-03-14T11:32:41;9.50;99.90
13848;DHT22;6994;49.752;6.094;2023-03-14T11:35:17;9.20;99.90
13848;DHT22;6994;49.752;6.094;2023-03-14T11:37:46;9.70;99.90
13848;DHT22;6994;49.752;6.094;2023-03-14T11:40:18;9.70;99.90
13848;DHT22;6994;49.752;6.094;2023-03-14T11:42:46;9.90;99.90
13848;DHT22;6994;49.752;6.094;2023-03-14T11:45:18;10.20;99.90
13848;DHT22;6994;49.752;6.094;2023-03-14T11:47:45;10.50;99.90
13848;DHT22;6994;49.752;6.094;2023-03-14T11:50:28;10.80;99.90
13848;DHT22;6994;49.752;6.094;2023-03-14T11:53:45;11.60;99.90
13848;DHT22;6994;49.752;6.094;2023-03-14T11:55:26;12.30;99.90
13848;DHT22;6994;49.752;6.094;2023-03-14T11:57:56;12.30;99.90
13848;DHT22;6994;49.752;6.094;2023-03-14T12:00:23;12.30;99.90
13848;DHT22;6994;49.752;6.094;2023-03-14T12:02:53;12.30;99.90
13848;DHT22;6994;49.752;6.094;2023-03-14T12:05:38;12.20;99.90
13848;DHT22;6994;49.752;6.094;2023-03-14T12:13:08;11.50;99.90
13848;DHT22;6994;49.752;6.094;2023-03-14T12:15:34;11.20;99.90
13848;DHT22;6994;49.752;6.094;2023-03-14T12:18:01;10.80;99.90
13848;DHT22;6994;49.752;6.094;2023-03-14T12:20:28;10.50;99.90
13848;DHT22;6994;49.752;6.094;2023-03-14T12:23:05;10.30;99.90
13848;DHT22;6994;49.752;6.094;2023-03-14T12:25:26;10.40;99.90
13848;DHT22;6994;49.752;6.094;2023-03-14T12:30:36;10.50;99.90
13848;DHT22;6994;49.752;6.094;2023-03-14T12:35:50;10.40;99.90
13848;DHT22;6994;49.752;6.094;2023-03-14T12:41:27;10.30;99.90
13848;DHT22;6994;49.752;6.094;2023-03-14T12:43:53;10.20;99.90
13848;DHT22;6994;49.752;6.094;2023-03-14T12:46:25;10.30;99.90
13848;DHT22;6994;49.752;6.094;2023-03-14T12:51:33;10.50;99.90
13848;DHT22;6994;49.752;6.094;2023-03-14T13:04:34;11.10;99.90
13848;DHT22;6994;49.752;6.094;2023-03-14T13:06:58;11.10;99.90
13848;DHT22;6994;49.752;6.094;2023-03-14T13:11:55;10.70;99.90
13848;DHT22;6994;49.752;6.094;2023-03-14T13:14:25;10.70;99.90
13848;DHT22;6994;49.752;6.094;2023-03-14T13:16:53;10.90;99.90
13848;DHT22;6994;49.752;6.094;2023-03-14T13:19:25;11.30;99.90
13848;DHT22;6994;49.752;6.094;2023-03-14T13:21:48;11.30;99.90
13848;DHT22;6994;49.752;6.094;2023-03-14T13:24:22;11.50;99.90
13848;DHT22;6994;49.752;6.094;2023-03-14T13:26:48;11.60;99.90
13848;DHT22;6994;49.752;6.094;2023-03-14T13:31:54;11.60;99.90
13848;DHT22;6994;49.752;6.094;2023-03-14T13:34:21;11.50;99.90
13848;DHT22;6994;49.752;6.094;2023-03-14T13:36:51;11.30;99.90
13848;DHT22;6994;49.752;6.094;2023-03-14T13:39:20;11.20;99.90
13848;DHT22;6994;49.752;6.094;2023-03-14T13:41:46;11.40;99.90
13848;DHT22;6994;49.752;6.094;2023-03-14T13:44:14;11.30;99.90
13848;DHT22;6994;49.752;6.094;2023-03-14T13:46:40;11.70;99.90
13848;DHT22;6994;49.752;6.094;2023-03-14T13:49:10;11.80;99.90
13848;DHT22;6994;49.752;6.094;2023-03-14T13:51:40;11.70;99.90
13848;DHT22;6994;49.752;6.094;2023-03-14T13:54:14;11.60;99.90
13848;DHT22;6994;49.752;6.094;2023-03-14T13:56:40;11.80;99.90
13848;DHT22;6994;49.752;6.094;2023-03-14T13:59:27;13.20;99.90
13848;DHT22;6994;49.752;6.094;2023-03-14T14:01:54;16.30;98.10
13848;DHT22;6994;49.752;6.094;2023-03-14T14:04:22;16.30;98.00
13848;DHT22;6994;49.752;6.094;2023-03-14T14:06:58;17.40;96.20
13848;DHT22;6994;49.752;6.094;2023-03-14T14:09:35;18.30;88.80
13848;DHT22;6994;49.752;6.094;2023-03-14T14:12:17;18.30;88.70
13848;DHT22;6994;49.752;6.094;2023-03-14T14:14:47;18.30;87.60
13848;DHT22;6994;49.752;6.094;2023-03-14T14:17:14;18.70;85.20
13848;DHT22;6994;49.752;6.094;2023-03-14T14:19:40;19.00;81.90
13848;DHT22;6994;49.752;6.094;2023-03-14T14:22:10;19.20;80.40
13848;DHT22;6994;49.752;6.094;2023-03-14T14:24:37;19.30;76.70
13848;DHT22;6994;49.752;6.094;2023-03-14T14:29:38;15.90;76.00
13848;DHT22;6994;49.752;6.094;2023-03-14T14:34:45;14.80;79.00
13848;DHT22;6994;49.752;6.094;2023-03-14T14:37:33;13.90;82.80
13848;DHT22;6994;49.752;6.094;2023-03-14T14:39:57;13.40;84.00
13848;DHT22;6994;49.752;6.094;2023-03-14T14:42:28;12.80;87.90
13848;DHT22;6994;49.752;6.094;2023-03-14T14:44:51;12.50;90.30
13848;DHT22;6994;49.752;6.094;2023-03-14T14:47:21;12.40;91.30
13848;DHT22;6994;49.752;6.094;2023-03-14T14:49:48;12.70;90.90
13848;DHT22;6994;49.752;6.094;2023-03-14T14:52:18;13.50;90.60
13848;DHT22;6994;49.752;6.094;2023-03-14T14:54:52;14.40;90.10
13848;DHT22;6994;49.752;6.094;2023-03-14T14:57:19;15.00;90.50
13848;DHT22;6994;49.752;6.094;2023-03-14T14:59:47;16.20;90.20
13848;DHT22;6994;49.752;6.094;2023-03-14T15:02:38;16.80;88.60
13848;DHT22;6994;49.752;6.094;2023-03-14T15:05:04;17.00;87.70
13848;DHT22;6994;49.752;6.094;2023-03-14T15:07:31;16.40;86.20
13848;DHT22;6994;49.752;6.094;2023-03-14T15:09:58;15.60;87.90
13848;DHT22;6994;49.752;6.094;2023-03-14T15:12:25;14.90;88.30
13848;DHT22;6994;49.752;6.094;2023-03-14T15:14:53;13.90;90.70
13848;DHT22;6994;49.752;6.094;2023-03-14T15:17:21;12.20;93.20
13848;DHT22;6994;49.752;6.094;2023-03-14T15:19:48;12.20;93.20
13848;DHT22;6994;49.752;6.094;2023-03-14T15:22:15;11.30;95.20
13848;DHT22;6994;49.752;6.094;2023-03-14T15:24:42;10.50;96.40
13848;DHT22;6994;49.752;6.094;2023-03-14T15:27:12;9.90;97.80
13848;DHT22;6994;49.752;6.094;2023-03-14T15:29:38;9.20;99.80
13848;DHT22;6994;49.752;6.094;2023-03-14T15:32:05;9.20;99.80
13848;DHT22;6994;49.752;6.094;2023-03-14T15:34:32;9.00;99.90
13848;DHT22;6994;49.752;6.094;2023-03-14T15:36:59;8.90;99.90
13848;DHT22;6994;49.752;6.094;2023-03-14T15:39:26;9.10;99.90
13848;DHT22;6994;49.752;6.094;2023-03-14T15:41:53;9.10;99.90
13848;DHT22;6994;49.752;6.094;2023-03-14T15:44:21;9.20;99.90
13848;DHT22;6994;49.752;6.094;2023-03-14T15:46:48;9.10;99.90
13848;DHT22;6994;49.752;6.094;2023-03-14T15:49:15;9.20;99.90
13848;DHT22;6994;49.752;6.094;2023-03-14T15:51:42;9.10;99.90
13848;DHT22;6994;49.752;6.094;2023-03-14T15:54:09;8.90;99.90
13848;DHT22;6994;49.752;6.094;2023-03-14T15:56:37;8.70;99.90
13848;DHT22;6994;49.752;6.094;2023-03-14T15:59:04;8.70;99.90
13848;DHT22;6994;49.752;6.094;2023-03-14T16:01:31;8.60;99.90
13848;DHT22;6994;49.752;6.094;2023-03-14T16:03:58;8.80;99.90
13848;DHT22;6994;49.752;6.094;2023-03-14T16:06:25;8.70;99.90
13848;DHT22;6994;49.752;6.094;2023-03-14T16:08:53;8.90;99.90
13848;DHT22;6994;49.752;6.094;2023-03-14T16:11:20;8.90;99.90
13848;DHT22;6994;49.752;6.094;2023-03-14T16:13:47;9.30;99.90
13848;DHT22;6994;49.752;6.094;2023-03-14T16:16:14;9.40;99.90
13848;DHT22;6994;49.752;6.094;2023-03-14T16:18:41;9.30;99.90
13848;DHT22;6994;49.752;6.094;2023-03-14T16:21:13;9.10;99.90
13848;DHT22;6994;49.752;6.094;2023-03-14T16:23:39;8.90;99.90
13848;DHT22;6994;49.752;6.094;2023-03-14T16:26:07;8.70;99.90
13848;DHT22;6994;49.752;6.094;2023-03-14T16:28:33;8.60;99.90
13848;DHT22;6994;49.752;6.094;2023-03-14T16:31:02;8.40;99.90
13848;DHT22;6994;49.752;6.094;2023-03-14T16:33:29;8.40;99.90
13848;DHT22;6994;49.752;6.094;2023-03-14T16:35:56;8.20;99.90
13848;DHT22;6994;49.752;6.094;2023-03-14T16:38:23;8.00;99.90
13848;DHT22;6994;49.752;6.094;2023-03-14T16:40:57;8.00;99.90
13848;DHT22;6994;49.752;6.094;2023-03-14T16:43:24;7.90;99.90
13848;DHT22;6994;49.752;6.094;2023-03-14T16:45:51;7.90;99.90
13848;DHT22;6994;49.752;6.094;2023-03-14T16:48:18;7.90;99.90
13848;DHT22;6994;49.752;6.094;2023-03-14T16:50:46;7.90;99.90
13848;DHT22;6994;49.752;6.094;2023-03-14T16:53:13;7.80;99.90
13848;DHT22;6994;49.752;6.094;2023-03-14T16:55:40;7.80;99.90
13848;DHT22;6994;49.752;6.094;2023-03-14T16:58:07;7.70;99.90
13848;DHT22;6994;49.752;6.094;2023-03-14T17:00:34;7.90;99.90